createdAt,value
2022-10-31T00:01:29.554Z,12.93
2022-10-31T00:03:57.406Z,13.80
2022-10-31T00:06:26.011Z,12.17
2022-10-31T00:08:56.002Z,11.43
2022-10-31T00:11:25.678Z,11.00
2022-10-31T00:13:53.838Z,11.47
2022-10-31T00:16:23.142Z,12.33
2022-10-31T00:18:51.422Z,11.10
2022-10-31T00:21:19.659Z,12.03
2022-10-31T00:23:47.746Z,9.97
2022-10-31T00:26:15.566Z,9.70
2022-10-31T00:28:45.038Z,10.33
2022-10-31T00:31:14.582Z,9.87
2022-10-31T00:33:43.018Z,9.37
2022-10-31T00:36:15.293Z,9.77
2022-10-31T00:38:43.713Z,10.13
2022-10-31T00:41:11.786Z,10.63
2022-10-31T00:43:39.578Z,12.17
2022-10-31T00:46:08.641Z,12.40
2022-10-31T00:48:36.378Z,12.33
2022-10-31T00:51:04.276Z,13.03
2022-10-31T00:53:31.982Z,14.50
2022-10-31T00:55:59.736Z,13.67
2022-10-31T00:58:27.450Z,13.03
2022-10-31T01:00:56.776Z,13.13
2022-10-31T01:03:27.342Z,13.70
2022-10-31T01:06:00.888Z,12.60
2022-10-31T01:08:29.497Z,13.57
2022-10-31T01:11:06.337Z,11.93
2022-10-31T01:13:34.673Z,12.37
2022-10-31T01:16:03.134Z,13.13
2022-10-31T01:18:32.244Z,13.10
2022-10-31T01:21:02.103Z,11.70
2022-10-31T01:23:30.159Z,11.87
2022-10-31T01:26:02.746Z,11.40
2022-10-31T01:28:30.486Z,12.73
2022-10-31T01:31:02.317Z,11.30
2022-10-31T01:33:30.185Z,12.80
2022-10-31T01:35:59.442Z,12.60
2022-10-31T01:38:27.491Z,13.17
2022-10-31T01:40:55.167Z,11.60
2022-10-31T01:43:22.945Z,11.67
2022-10-31T01:45:54.649Z,12.30
2022-10-31T01:48:26.663Z,12.37
2022-10-31T01:50:56.889Z,12.50
2022-10-31T01:53:27.137Z,11.87
2022-10-31T01:55:55.287Z,12.47
2022-10-31T01:58:27.291Z,11.93
2022-10-31T02:01:01.807Z,12.53
2022-10-31T02:03:33.509Z,14.37
2022-10-31T02:06:01.655Z,13.07
2022-10-31T02:08:32.466Z,12.80
2022-10-31T02:11:01.890Z,13.00
2022-10-31T02:13:30.878Z,13.70
2022-10-31T02:16:00.258Z,14.13
2022-10-31T02:18:31.280Z,14.03
2022-10-31T02:21:11.943Z,13.20
2022-10-31T02:24:14.087Z,14.13
2022-10-31T02:27:03.633Z,14.90
2022-10-31T02:30:05.858Z,14.20
2022-10-31T02:32:44.950Z,15.00
2022-10-31T02:35:19.409Z,14.63
2022-10-31T02:37:52.098Z,14.00
2022-10-31T02:40:25.397Z,13.70
2022-10-31T02:43:00.040Z,14.80
2022-10-31T02:45:33.122Z,12.80
2022-10-31T02:48:09.958Z,13.67
2022-10-31T02:50:41.799Z,12.97
2022-10-31T02:53:09.523Z,12.10
2022-10-31T02:56:02.298Z,11.43
2022-10-31T02:58:33.499Z,14.17
2022-10-31T03:01:28.006Z,12.57
2022-10-31T03:04:22.999Z,11.90
2022-10-31T03:06:57.326Z,12.47
2022-10-31T03:09:29.830Z,13.50
2022-10-31T03:12:04.708Z,15.23
2022-10-31T03:14:42.181Z,13.93
2022-10-31T03:17:15.284Z,14.30
2022-10-31T03:19:47.595Z,15.07
2022-10-31T03:22:20.032Z,13.60
2022-10-31T03:24:49.947Z,14.43
2022-10-31T03:27:23.040Z,14.03
2022-10-31T03:29:53.272Z,14.47
2022-10-31T03:32:26.346Z,14.23
2022-10-31T03:34:59.268Z,13.37
2022-10-31T03:37:31.671Z,13.60
2022-10-31T03:40:01.956Z,12.90
2022-10-31T03:42:32.219Z,13.57
2022-10-31T03:45:03.317Z,13.90
2022-10-31T03:47:31.418Z,13.27
2022-10-31T03:50:00.741Z,13.80
2022-10-31T03:52:35.465Z,13.67
2022-10-31T03:55:09.410Z,12.63
2022-10-31T03:57:41.915Z,13.57
2022-10-31T04:00:12.111Z,13.13
2022-10-31T04:02:43.198Z,12.97
2022-10-31T04:05:14.904Z,12.90
2022-10-31T04:07:47.022Z,12.27
2022-10-31T04:10:17.025Z,10.70
2022-10-31T04:12:50.213Z,12.37
2022-10-31T04:15:18.218Z,11.53
2022-10-31T04:17:49.378Z,11.30
2022-10-31T04:20:19.925Z,11.47
2022-10-31T04:22:47.648Z,11.93
2022-10-31T04:25:15.444Z,10.97
2022-10-31T04:27:43.141Z,12.00
2022-10-31T04:30:11.674Z,10.30
2022-10-31T04:32:39.366Z,10.47
2022-10-31T04:35:07.932Z,9.33
2022-10-31T04:37:36.942Z,9.33
2022-10-31T04:40:05.578Z,12.67
2022-10-31T04:42:33.766Z,11.53
2022-10-31T04:45:01.462Z,12.17
2022-10-31T04:47:29.143Z,11.03
2022-10-31T04:49:56.834Z,10.50
2022-10-31T04:52:24.597Z,9.97
2022-10-31T04:54:53.629Z,9.63
2022-10-31T04:57:21.319Z,10.27
2022-10-31T04:59:49.029Z,9.87
2022-10-31T05:02:16.859Z,10.27
2022-10-31T05:04:44.686Z,9.73
2022-10-31T05:07:12.432Z,9.37
2022-10-31T05:09:40.163Z,10.60
2022-10-31T05:12:09.234Z,10.23
2022-10-31T05:14:36.917Z,11.40
2022-10-31T05:17:04.623Z,12.33
2022-10-31T05:19:32.314Z,12.43
2022-10-31T05:22:00.079Z,11.23
2022-10-31T05:24:27.764Z,11.60
2022-10-31T05:26:55.457Z,10.87
2022-10-31T05:29:24.461Z,10.73
2022-10-31T05:31:52.157Z,11.23
2022-10-31T05:34:19.830Z,10.60
2022-10-31T05:36:47.526Z,10.90
2022-10-31T05:39:15.293Z,10.13
2022-10-31T05:41:43.018Z,9.87
2022-10-31T05:44:10.721Z,10.40
2022-10-31T05:46:39.782Z,8.07
2022-10-31T05:49:07.492Z,8.10
2022-10-31T05:51:35.313Z,7.80
2022-10-31T05:54:03.007Z,7.60
2022-10-31T05:56:30.703Z,8.47
2022-10-31T05:58:58.665Z,7.53
2022-10-31T06:01:26.395Z,7.80
2022-10-31T06:03:55.447Z,5.97
2022-10-31T06:06:23.162Z,6.70
2022-10-31T06:08:50.860Z,6.63
2022-10-31T06:11:18.546Z,7.23
2022-10-31T06:13:46.364Z,8.07
2022-10-31T06:16:14.063Z,6.83
2022-10-31T06:18:41.735Z,8.10
2022-10-31T06:21:12.516Z,9.13
2022-10-31T06:23:42.649Z,10.50
2022-10-31T06:26:10.519Z,9.00
2022-10-31T06:28:38.249Z,8.90
2022-10-31T06:31:06.237Z,8.57
2022-10-31T06:33:34.925Z,9.87
2022-10-31T06:36:03.114Z,9.53
2022-10-31T06:38:32.116Z,9.80
2022-10-31T06:40:59.910Z,9.03
2022-10-31T06:43:27.633Z,8.87
2022-10-31T06:45:55.441Z,8.57
2022-10-31T06:48:23.506Z,8.37
2022-10-31T06:50:54.723Z,8.63
2022-10-31T06:53:26.342Z,9.27
2022-10-31T06:55:56.791Z,9.63
2022-10-31T06:58:24.643Z,9.23
2022-10-31T07:00:52.504Z,9.87
2022-10-31T07:03:21.166Z,9.77
2022-10-31T07:05:48.918Z,10.07
2022-10-31T07:08:16.617Z,9.57
2022-10-31T07:10:45.298Z,10.00
2022-10-31T07:13:15.952Z,11.23
2022-10-31T07:15:45.169Z,11.30
2022-10-31T07:18:13.776Z,10.57
2022-10-31T07:20:41.559Z,10.87
2022-10-31T07:23:10.527Z,9.90
2022-10-31T07:25:38.299Z,9.93
2022-10-31T07:28:06.324Z,10.23
2022-10-31T07:30:35.827Z,10.57
2022-10-31T07:33:03.740Z,9.63
2022-10-31T07:35:32.424Z,11.73
2022-10-31T07:38:08.414Z,11.20
2022-10-31T07:40:36.608Z,9.03
2022-10-31T07:43:05.472Z,9.93
2022-10-31T07:45:36.663Z,9.00
2022-10-31T07:48:04.620Z,10.50
2022-10-31T07:50:34.761Z,10.00
2022-10-31T07:53:03.804Z,10.00
2022-10-31T07:55:32.369Z,9.47
2022-10-31T07:58:01.689Z,10.83
2022-10-31T08:00:30.449Z,9.98
2022-10-31T08:03:04.476Z,9.93
2022-10-31T08:05:33.483Z,10.97
2022-10-31T08:08:01.521Z,10.23
2022-10-31T08:10:30.140Z,10.73
2022-10-31T08:12:59.340Z,9.98
2022-10-31T08:15:27.611Z,10.27
2022-10-31T08:17:55.615Z,9.73
2022-10-31T08:20:24.745Z,11.30
2022-10-31T08:22:57.327Z,11.27
2022-10-31T08:25:25.834Z,12.30
2022-10-31T08:27:54.231Z,13.00
2022-10-31T08:30:23.116Z,12.73
2022-10-31T08:33:00.257Z,12.65
2022-10-31T08:35:29.620Z,13.00
2022-10-31T08:37:58.217Z,12.65
2022-10-31T08:40:27.300Z,13.07
2022-10-31T08:42:59.404Z,13.02
2022-10-31T08:45:27.227Z,14.05
2022-10-31T08:47:59.519Z,12.95
2022-10-31T08:50:29.517Z,12.70
2022-10-31T08:53:06.264Z,14.25
2022-10-31T08:55:36.183Z,12.63
2022-10-31T08:58:05.131Z,13.30
2022-10-31T09:00:33.230Z,13.13
2022-10-31T09:03:01.789Z,11.98
2022-10-31T09:05:31.467Z,11.95
2022-10-31T09:07:59.852Z,13.35
2022-10-31T09:10:29.165Z,13.55
2022-10-31T09:12:57.922Z,13.60
2022-10-31T09:15:26.126Z,13.05
2022-10-31T09:17:53.997Z,13.73
2022-10-31T09:20:22.332Z,13.07
2022-10-31T09:22:58.030Z,12.35
2022-10-31T09:25:26.104Z,11.93
2022-10-31T09:27:58.362Z,12.25
2022-10-31T09:30:26.850Z,12.80
2022-10-31T09:32:57.587Z,13.23
2022-10-31T09:35:26.081Z,13.55
2022-10-31T09:37:58.867Z,12.68
2022-10-31T09:40:33.002Z,13.45
2022-10-31T09:43:09.495Z,13.75
2022-10-31T09:45:45.215Z,14.50
2022-10-31T09:48:25.399Z,13.85
2022-10-31T09:50:57.085Z,14.35
2022-10-31T09:53:32.591Z,14.38
2022-10-31T09:56:01.566Z,14.13
2022-10-31T09:58:33.033Z,14.73
2022-10-31T10:01:05.279Z,14.23
2022-10-31T10:03:38.796Z,14.20
2022-10-31T10:06:13.992Z,13.98
2022-10-31T10:08:43.315Z,14.07
2022-10-31T10:11:32.196Z,14.80
2022-10-31T10:14:26.398Z,14.32
2022-10-31T10:17:07.915Z,14.90
2022-10-31T10:19:52.046Z,14.32
2022-10-31T10:22:26.444Z,14.30
2022-10-31T10:25:14.771Z,14.52
2022-10-31T10:27:52.093Z,14.38
2022-10-31T10:30:22.096Z,14.90
2022-10-31T10:32:54.298Z,15.45
2022-10-31T10:35:26.551Z,16.38
2022-10-31T10:37:59.318Z,16.00
2022-10-31T10:40:30.073Z,14.70
2022-10-31T10:43:21.335Z,15.48
2022-10-31T10:46:12.098Z,16.20
2022-10-31T10:48:50.780Z,15.32
2022-10-31T10:51:38.883Z,15.73
2022-10-31T10:54:31.862Z,16.05
2022-10-31T10:57:13.599Z,15.15
2022-10-31T10:59:41.366Z,15.70
2022-10-31T11:02:19.606Z,17.20
2022-10-31T11:04:51.860Z,16.42
2022-10-31T11:07:20.148Z,15.65
2022-10-31T11:09:48.548Z,15.90
2022-10-31T11:12:23.782Z,16.95
2022-10-31T11:14:54.313Z,16.33
2022-10-31T11:17:28.489Z,17.17
2022-10-31T11:20:05.385Z,16.38
2022-10-31T11:22:33.203Z,16.80
2022-10-31T11:25:00.945Z,15.85
2022-10-31T11:27:30.077Z,16.75
2022-10-31T11:30:07.014Z,15.48
2022-10-31T11:32:34.813Z,15.13
2022-10-31T11:35:04.881Z,15.57
2022-10-31T11:37:37.040Z,16.50
2022-10-31T11:40:07.759Z,16.58
2022-10-31T11:42:41.133Z,15.05
2022-10-31T11:45:16.884Z,17.63
2022-10-31T11:47:48.314Z,17.52
2022-10-31T11:50:22.171Z,15.98
2022-10-31T11:52:50.986Z,15.88
2022-10-31T11:55:31.904Z,16.05
2022-10-31T11:58:01.348Z,15.88
2022-10-31T12:00:31.144Z,16.65
2022-10-31T12:03:29.464Z,16.30
2022-10-31T12:06:02.736Z,15.75
2022-10-31T12:08:36.166Z,15.13
2022-10-31T12:11:12.018Z,14.27
2022-10-31T12:13:53.874Z,16.10
2022-10-31T12:16:32.470Z,15.43
2022-10-31T12:19:05.006Z,15.80
2022-10-31T12:21:54.245Z,15.70
2022-10-31T12:24:36.165Z,17.38
2022-10-31T12:27:19.616Z,17.70
2022-10-31T12:30:03.841Z,16.55
2022-10-31T12:32:40.455Z,17.48
2022-10-31T12:35:22.191Z,17.42
2022-10-31T12:38:03.547Z,16.85
2022-10-31T12:40:50.520Z,16.08
2022-10-31T12:43:30.347Z,17.20
2022-10-31T12:46:01.389Z,18.30
2022-10-31T12:49:05.038Z,16.90
2022-10-31T12:51:42.450Z,17.20
2022-10-31T12:54:27.184Z,16.67
2022-10-31T12:57:03.333Z,17.08
2022-10-31T12:59:36.118Z,18.42
2022-10-31T13:02:15.444Z,16.80
2022-10-31T13:04:48.728Z,16.73
2022-10-31T13:07:22.256Z,16.75
2022-10-31T13:09:56.928Z,16.92
2022-10-31T13:12:25.987Z,17.58
2022-10-31T13:14:56.796Z,17.63
2022-10-31T13:17:31.877Z,17.17
2022-10-31T13:20:17.253Z,16.08
2022-10-31T13:22:48.097Z,16.63
2022-10-31T13:25:18.875Z,16.67
2022-10-31T13:27:52.881Z,17.40
2022-10-31T13:30:22.348Z,16.50
2022-10-31T13:32:56.671Z,18.08
2022-10-31T13:35:30.983Z,18.75
2022-10-31T13:38:16.973Z,18.10
2022-10-31T13:40:51.345Z,18.85
2022-10-31T13:43:28.749Z,17.73
2022-10-31T13:45:57.608Z,19.52
2022-10-31T13:48:39.801Z,19.13
2022-10-31T13:51:09.540Z,18.25
2022-10-31T13:53:40.066Z,20.30
2022-10-31T13:56:17.292Z,20.10
2022-10-31T13:59:03.989Z,17.17
2022-10-31T14:01:33.203Z,18.70
2022-10-31T14:04:13.524Z,18.40
2022-10-31T14:06:51.098Z,18.00
2022-10-31T14:09:26.600Z,18.67
2022-10-31T14:11:55.060Z,18.25
2022-10-31T14:14:32.377Z,20.05
2022-10-31T14:17:04.255Z,19.15
2022-10-31T14:19:33.350Z,17.00
2022-10-31T14:22:01.081Z,17.33
2022-10-31T14:24:37.905Z,18.70
2022-10-31T14:27:22.418Z,18.75
2022-10-31T14:29:50.732Z,18.73
2022-10-31T14:32:23.369Z,21.50
2022-10-31T14:34:58.237Z,20.35
2022-10-31T14:37:47.529Z,17.63
2022-10-31T14:40:27.709Z,19.02
2022-10-31T14:43:11.696Z,19.10
2022-10-31T14:45:46.975Z,17.83
2022-10-31T14:48:50.128Z,16.83
2022-10-31T14:51:22.133Z,17.90
2022-10-31T14:53:52.072Z,19.25
2022-10-31T14:56:25.667Z,21.25
2022-10-31T14:58:55.872Z,22.27
2022-10-31T15:01:27.663Z,18.40
2022-10-31T15:06:51.743Z,16.42
2022-10-31T15:09:24.475Z,18.13
2022-10-31T15:11:52.257Z,16.40
2022-10-31T15:14:25.584Z,18.95
2022-10-31T15:16:53.801Z,19.48
2022-10-31T15:19:24.960Z,16.92
2022-10-31T15:21:55.654Z,17.77
2022-10-31T15:24:26.312Z,19.27
2022-10-31T15:26:56.288Z,19.60
2022-10-31T15:29:26.359Z,18.92
2022-10-31T15:31:55.682Z,18.13
2022-10-31T15:34:37.723Z,18.48
2022-10-31T15:37:06.965Z,24.35
2022-10-31T15:39:35.367Z,18.85
2022-10-31T15:42:03.489Z,20.88
2022-10-31T15:44:35.136Z,18.60
2022-10-31T15:47:06.287Z,15.25
2022-10-31T15:49:39.337Z,16.27
2022-10-31T15:52:16.398Z,15.50
2022-10-31T15:54:49.522Z,15.88
2022-10-31T15:57:18.647Z,16.65
2022-10-31T15:59:49.303Z,16.58
2022-10-31T16:02:21.241Z,17.95
2022-10-31T16:04:55.429Z,18.20
2022-10-31T16:07:25.251Z,16.02
2022-10-31T16:09:58.011Z,17.80
2022-10-31T16:12:27.662Z,17.55
2022-10-31T16:14:56.955Z,18.60
2022-10-31T16:17:27.992Z,21.23
2022-10-31T16:19:58.868Z,19.13
2022-10-31T16:22:31.605Z,17.63
2022-10-31T16:25:06.985Z,13.45
2022-10-31T16:27:38.000Z,14.27
2022-10-31T16:30:37.060Z,15.18
2022-10-31T16:33:05.416Z,13.45
2022-10-31T16:35:36.187Z,14.70
2022-10-31T16:38:06.195Z,16.88
2022-10-31T16:40:34.514Z,15.23
2022-10-31T16:43:03.067Z,16.20
2022-10-31T16:45:33.003Z,15.43
2022-10-31T16:48:05.562Z,17.75
2022-10-31T16:50:33.677Z,14.90
2022-10-31T16:53:13.448Z,15.73
2022-10-31T16:55:47.427Z,18.75
2022-10-31T16:58:22.677Z,21.15
2022-10-31T17:00:50.776Z,19.58
2022-10-31T17:03:18.540Z,19.55
2022-10-31T17:05:46.450Z,15.10
2022-10-31T17:08:14.285Z,19.60
2022-10-31T17:10:44.821Z,21.73
2022-10-31T17:13:18.829Z,21.17
2022-10-31T17:15:49.359Z,23.85
2022-10-31T17:18:21.682Z,21.60
2022-10-31T17:20:57.931Z,20.65
2022-10-31T17:23:25.811Z,19.00
2022-10-31T17:25:54.891Z,22.50
2022-10-31T17:28:22.691Z,22.05
2022-10-31T17:30:50.609Z,19.80
2022-10-31T17:33:18.381Z,23.20
2022-10-31T17:35:46.711Z,24.30
2022-10-31T17:38:14.549Z,22.75
2022-10-31T17:40:43.149Z,23.60
2022-10-31T17:43:13.038Z,19.15
2022-10-31T17:45:42.614Z,20.85
2022-10-31T17:48:12.870Z,25.23
2022-10-31T17:50:40.960Z,26.02
2022-10-31T17:53:08.717Z,30.73
2022-10-31T17:55:37.657Z,34.08
2022-10-31T17:58:06.461Z,30.55
2022-10-31T18:00:35.501Z,39.67
2022-10-31T18:03:04.379Z,39.63
2022-10-31T18:05:32.697Z,42.83
2022-10-31T18:08:03.748Z,49.15
2022-10-31T18:10:32.096Z,46.60
2022-10-31T18:13:00.212Z,34.50
2022-10-31T18:15:28.235Z,29.60
2022-10-31T18:17:57.314Z,30.88
2022-10-31T18:20:25.314Z,32.42
2022-10-31T18:22:53.069Z,28.08
2022-10-31T18:25:20.802Z,28.15
2022-10-31T18:27:48.521Z,29.83
2022-10-31T18:30:16.416Z,33.13
2022-10-31T18:32:44.236Z,37.38
2022-10-31T18:35:13.309Z,37.85
2022-10-31T18:37:41.058Z,42.85
2022-10-31T18:40:09.711Z,38.33
2022-10-31T18:42:38.360Z,37.35
2022-10-31T18:45:12.006Z,32.53
2022-10-31T18:47:52.115Z,32.10
2022-10-31T18:50:21.380Z,38.93
2022-10-31T18:52:49.127Z,33.27
2022-10-31T18:55:17.047Z,32.97
2022-10-31T18:57:44.847Z,33.20
2022-10-31T19:00:14.991Z,33.40
2022-10-31T19:02:42.752Z,31.50
2022-10-31T19:05:10.655Z,31.75
2022-10-31T19:07:39.788Z,32.57
2022-10-31T19:10:08.185Z,28.15
2022-10-31T19:12:36.176Z,29.25
2022-10-31T19:15:04.037Z,28.15
2022-10-31T19:17:31.754Z,29.67
2022-10-31T19:19:59.470Z,31.02
2022-10-31T19:22:27.270Z,29.20
2022-10-31T19:24:56.302Z,31.77
2022-10-31T19:27:26.385Z,29.23
2022-10-31T19:29:54.156Z,31.43
2022-10-31T19:32:21.862Z,34.63
2022-10-31T19:34:49.600Z,32.63
2022-10-31T19:37:17.380Z,34.30
2022-10-31T19:39:45.171Z,31.38
2022-10-31T19:42:14.305Z,37.30
2022-10-31T19:44:42.039Z,33.07
2022-10-31T19:47:10.730Z,30.03
2022-10-31T19:49:38.670Z,32.97
2022-10-31T19:52:06.536Z,36.70
2022-10-31T19:54:34.402Z,39.27
2022-10-31T19:57:02.090Z,39.17
2022-10-31T19:59:35.122Z,36.53
2022-10-31T20:02:05.978Z,45.93
2022-10-31T20:04:33.719Z,41.43
2022-10-31T20:07:01.467Z,43.63
2022-10-31T20:09:29.203Z,43.27
2022-10-31T20:11:56.930Z,36.80
2022-10-31T20:14:24.626Z,40.33
2022-10-31T20:16:54.710Z,44.30
2022-10-31T20:19:24.121Z,45.90
2022-10-31T20:21:52.109Z,40.50
2022-10-31T20:24:20.322Z,39.70
2022-10-31T20:26:48.069Z,38.97
2022-10-31T20:29:16.795Z,45.10
2022-10-31T20:31:45.994Z,48.23
2022-10-31T20:34:15.192Z,39.30
2022-10-31T20:36:43.058Z,40.47
2022-10-31T20:39:11.227Z,34.20
2022-10-31T20:41:39.568Z,35.87
2022-10-31T20:44:07.370Z,35.17
2022-10-31T20:46:35.205Z,33.87
2022-10-31T20:49:02.954Z,35.00
2022-10-31T20:51:32.248Z,38.33
2022-10-31T20:54:01.388Z,38.87
2022-10-31T20:56:31.132Z,36.60
2022-10-31T20:58:59.142Z,38.13
2022-10-31T21:01:29.199Z,41.23
2022-10-31T21:03:58.419Z,38.20
2022-10-31T21:06:26.439Z,32.57
2022-10-31T21:08:55.543Z,37.37
2022-10-31T21:11:25.318Z,34.40
2022-10-31T21:13:54.043Z,34.13
2022-10-31T21:16:23.705Z,35.10
2022-10-31T21:18:51.995Z,34.47
2022-10-31T21:21:24.138Z,34.20
2022-10-31T21:23:57.651Z,36.90
2022-10-31T21:26:28.457Z,36.47
2022-10-31T21:28:57.953Z,36.43
2022-10-31T21:31:28.240Z,35.60
2022-10-31T21:33:56.259Z,34.87
2022-10-31T21:36:24.064Z,39.23
2022-10-31T21:38:52.494Z,33.30
2022-10-31T21:41:22.313Z,34.40
2022-10-31T21:43:54.187Z,33.17
2022-10-31T21:46:23.493Z,35.87
2022-10-31T21:48:51.263Z,36.87
2022-10-31T21:51:20.587Z,31.33
2022-10-31T21:54:06.640Z,30.90
2022-10-31T21:56:35.942Z,32.27
2022-10-31T21:59:04.918Z,28.70
2022-10-31T22:01:33.362Z,30.50
2022-10-31T22:04:01.575Z,28.97
2022-10-31T22:06:30.847Z,29.03
2022-10-31T22:08:59.838Z,29.77
2022-10-31T22:11:28.916Z,31.57
2022-10-31T22:14:00.235Z,32.97
2022-10-31T22:16:29.533Z,28.60
2022-10-31T22:18:59.500Z,28.57
2022-10-31T22:21:28.923Z,29.10
2022-10-31T22:24:01.747Z,26.43
2022-10-31T22:26:33.404Z,26.87
2022-10-31T22:29:05.138Z,27.93
2022-10-31T22:31:34.615Z,29.70
2022-10-31T22:34:02.326Z,29.57
2022-10-31T22:36:31.498Z,28.50
2022-10-31T22:38:59.510Z,33.37
2022-10-31T22:41:28.946Z,34.97
2022-10-31T22:43:57.533Z,33.97
2022-10-31T22:46:28.572Z,34.93
2022-10-31T22:48:57.958Z,36.37
2022-10-31T22:51:27.133Z,34.97
2022-10-31T22:53:56.552Z,32.27
2022-10-31T22:56:26.323Z,36.30
2022-10-31T22:58:54.500Z,33.23
2022-10-31T23:01:24.272Z,32.93
2022-10-31T23:03:53.453Z,31.00
2022-10-31T23:06:23.572Z,28.77
2022-10-31T23:08:52.138Z,27.97
2022-10-31T23:11:23.506Z,28.00
2022-10-31T23:14:10.307Z,25.37
2022-10-31T23:16:42.294Z,25.73
2022-10-31T23:19:14.191Z,25.13
2022-10-31T23:21:56.161Z,25.20
2022-10-31T23:24:25.547Z,25.47
2022-10-31T23:27:05.398Z,22.83
2022-10-31T23:29:33.333Z,22.90
2022-10-31T23:32:01.133Z,22.00
2022-10-31T23:34:30.613Z,22.23
2022-10-31T23:36:58.455Z,24.97
2022-10-31T23:39:26.459Z,25.23
2022-10-31T23:41:54.211Z,28.77
2022-10-31T23:44:21.883Z,30.57
2022-10-31T23:46:49.673Z,28.87
2022-10-31T23:49:17.391Z,35.90
2022-10-31T23:51:46.510Z,34.37
2022-10-31T23:54:14.300Z,34.10
2022-10-31T23:56:42.014Z,33.20
2022-10-31T23:59:09.918Z,32.80
